Terminal Aerodrome Forecast
Issued by NWS Melbourne, FL

Home | Current Version | Previous Version | Text Only | Print | Product List | Glossary On
Versions: 1 2 3 4 5 6 7 8 9 10 11 12 13
000
FTUS42 KMLB 061126
TAFDAB
TAF
KDAB 061126Z 0612/0712 01006KT P6SM VCSH SCT015 SCT110 OVC200
     FM061300 02012KT P6SM VCSH SCT020 BKN040
      TEMPO 0613/0616 4SM SHRA BKN020
     FM061600 02013G20KT P6SM SCT020 BKN040
      TEMPO 0616/0620 3SM SHRA BKN020
     FM062000 03015G23KT P6SM SCT020 BKN040
      TEMPO 0620/0622 5SM SHRA BKN020
     FM070000 03013G19KT P6SM FEW020 BKN030
     FM070600 30010KT P6SM SCT020 BKN080=

USA.gov is the U.S. government's official web portal to all federal, state and local government web resources and services.